Terminal Aerodrome Forecast
Issued by NWS

Home | Current Version | Previous Version | Text Only | Print | Product List | Glossary On
Versions: 1 2 3 4 5 6 7 8 9 10 11 12
767
FTUS45 KREV 302320
TAFMMH
TAF
KMMH 302320Z 0100/0124 27017G29KT P6SM SCT100 WS020/24035KT
     FM010400 22010KT P6SM SKC WS020/25040KT
     FM011800 29012G22KT P6SM SKC=

USA.gov is the U.S. government's official web portal to all federal, state and local government web resources and services.